sensor_id;sensor_type;location;lat;lon;timestamp;temperature;humidity
11647;DHT22;5880;52.342;9.662;2023-07-16T00:00:11;24.80;56.20
11647;DHT22;5880;52.342;9.662;2023-07-16T00:02:38;24.70;56.40
11647;DHT22;5880;52.342;9.662;2023-07-16T00:05:04;24.60;56.60
11647;DHT22;5880;52.342;9.662;2023-07-16T00:07:31;24.60;56.60
11647;DHT22;5880;52.342;9.662;2023-07-16T00:09:56;24.60;56.50
11647;DHT22;5880;52.342;9.662;2023-07-16T00:12:22;24.60;56.30
11647;DHT22;5880;52.342;9.662;2023-07-16T00:14:48;24.50;56.60
11647;DHT22;5880;52.342;9.662;2023-07-16T00:17:14;24.50;56.80
11647;DHT22;5880;52.342;9.662;2023-07-16T00:19:40;24.50;56.70
11647;DHT22;5880;52.342;9.662;2023-07-16T00:22:06;24.50;56.60
11647;DHT22;5880;52.342;9.662;2023-07-16T00:24:31;24.40;56.50
11647;DHT22;5880;52.342;9.662;2023-07-16T00:26:57;24.50;56.80
11647;DHT22;5880;52.342;9.662;2023-07-16T00:29:23;24.40;56.80
11647;DHT22;5880;52.342;9.662;2023-07-16T00:31:49;24.40;56.90
11647;DHT22;5880;52.342;9.662;2023-07-16T00:34:15;24.50;56.80
11647;DHT22;5880;52.342;9.662;2023-07-16T00:36:40;24.40;56.70
11647;DHT22;5880;52.342;9.662;2023-07-16T00:39:06;24.40;56.70
11647;DHT22;5880;52.342;9.662;2023-07-16T00:41:32;24.50;56.90
11647;DHT22;5880;52.342;9.662;2023-07-16T00:43:57;24.50;57.00
11647;DHT22;5880;52.342;9.662;2023-07-16T00:46:24;24.40;56.90
11647;DHT22;5880;52.342;9.662;2023-07-16T00:48:50;24.40;57.10
11647;DHT22;5880;52.342;9.662;2023-07-16T00:51:16;24.40;57.00
11647;DHT22;5880;52.342;9.662;2023-07-16T00:53:43;24.30;57.30
11647;DHT22;5880;52.342;9.662;2023-07-16T00:56:10;24.30;57.00
11647;DHT22;5880;52.342;9.662;2023-07-16T00:58:36;24.30;58.00
11647;DHT22;5880;52.342;9.662;2023-07-16T01:01:02;24.30;57.40
11647;DHT22;5880;52.342;9.662;2023-07-16T01:03:28;24.10;57.60
11647;DHT22;5880;52.342;9.662;2023-07-16T01:06:14;24.30;58.00
11647;DHT22;5880;52.342;9.662;2023-07-16T01:08:49;24.30;58.60
11647;DHT22;5880;52.342;9.662;2023-07-16T01:11:23;24.30;58.10
11647;DHT22;5880;52.342;9.662;2023-07-16T01:13:50;24.30;57.90
11647;DHT22;5880;52.342;9.662;2023-07-16T01:16:21;24.20;57.80
11647;DHT22;5880;52.342;9.662;2023-07-16T01:18:48;24.30;57.80
11647;DHT22;5880;52.342;9.662;2023-07-16T01:21:15;24.20;57.80
11647;DHT22;5880;52.342;9.662;2023-07-16T01:24:08;24.20;57.60
11647;DHT22;5880;52.342;9.662;2023-07-16T01:29:37;24.20;58.00
11647;DHT22;5880;52.342;9.662;2023-07-16T01:32:10;24.20;58.20
11647;DHT22;5880;52.342;9.662;2023-07-16T01:34:38;24.10;57.50
11647;DHT22;5880;52.342;9.662;2023-07-16T01:37:05;24.10;57.50
11647;DHT22;5880;52.342;9.662;2023-07-16T01:39:31;24.10;57.40
11647;DHT22;5880;52.342;9.662;2023-07-16T01:42:01;24.10;57.40
11647;DHT22;5880;52.342;9.662;2023-07-16T01:44:27;24.10;57.30
11647;DHT22;5880;52.342;9.662;2023-07-16T01:47:17;24.10;57.50
11647;DHT22;5880;52.342;9.662;2023-07-16T01:49:49;24.10;58.00
11647;DHT22;5880;52.342;9.662;2023-07-16T01:52:15;24.20;57.40
11647;DHT22;5880;52.342;9.662;2023-07-16T01:54:41;24.10;57.30
11647;DHT22;5880;52.342;9.662;2023-07-16T01:57:07;24.10;57.40
11647;DHT22;5880;52.342;9.662;2023-07-16T01:59:32;24.10;57.40
11647;DHT22;5880;52.342;9.662;2023-07-16T02:01:58;24.10;57.40
11647;DHT22;5880;52.342;9.662;2023-07-16T02:04:24;24.10;57.50
11647;DHT22;5880;52.342;9.662;2023-07-16T02:06:49;24.10;57.40
11647;DHT22;5880;52.342;9.662;2023-07-16T02:09:15;24.10;57.40
11647;DHT22;5880;52.342;9.662;2023-07-16T02:11:41;24.10;57.40
11647;DHT22;5880;52.342;9.662;2023-07-16T02:14:06;24.10;57.40
11647;DHT22;5880;52.342;9.662;2023-07-16T02:16:32;24.10;57.60
11647;DHT22;5880;52.342;9.662;2023-07-16T02:18:58;24.10;57.60
11647;DHT22;5880;52.342;9.662;2023-07-16T02:21:23;24.00;57.40
11647;DHT22;5880;52.342;9.662;2023-07-16T02:23:49;24.10;57.60
11647;DHT22;5880;52.342;9.662;2023-07-16T02:26:15;24.00;57.50
11647;DHT22;5880;52.342;9.662;2023-07-16T02:28:40;24.10;57.60
11647;DHT22;5880;52.342;9.662;2023-07-16T02:31:06;24.00;57.60
11647;DHT22;5880;52.342;9.662;2023-07-16T02:33:32;24.00;57.60
11647;DHT22;5880;52.342;9.662;2023-07-16T02:35:57;24.00;57.60
11647;DHT22;5880;52.342;9.662;2023-07-16T02:38:23;23.90;57.60
11647;DHT22;5880;52.342;9.662;2023-07-16T02:40:49;24.00;57.60
11647;DHT22;5880;52.342;9.662;2023-07-16T02:43:15;24.00;57.50
11647;DHT22;5880;52.342;9.662;2023-07-16T02:45:41;23.90;57.70
11647;DHT22;5880;52.342;9.662;2023-07-16T02:48:07;24.00;57.50
11647;DHT22;5880;52.342;9.662;2023-07-16T02:50:37;23.90;57.40
11647;DHT22;5880;52.342;9.662;2023-07-16T02:53:07;23.90;58.00
11647;DHT22;5880;52.342;9.662;2023-07-16T02:55:34;23.90;58.50
11647;DHT22;5880;52.342;9.662;2023-07-16T02:58:00;23.90;57.60
11647;DHT22;5880;52.342;9.662;2023-07-16T03:00:30;23.90;57.40
11647;DHT22;5880;52.342;9.662;2023-07-16T03:02:57;24.00;57.20
11647;DHT22;5880;52.342;9.662;2023-07-16T03:05:24;23.80;57.10
11647;DHT22;5880;52.342;9.662;2023-07-16T03:07:50;23.80;57.00
11647;DHT22;5880;52.342;9.662;2023-07-16T03:10:16;23.90;57.00
11647;DHT22;5880;52.342;9.662;2023-07-16T03:12:42;23.80;57.00
11647;DHT22;5880;52.342;9.662;2023-07-16T03:15:08;23.70;57.20
11647;DHT22;5880;52.342;9.662;2023-07-16T03:17:34;23.70;57.30
11647;DHT22;5880;52.342;9.662;2023-07-16T03:20:00;23.60;57.40
11647;DHT22;5880;52.342;9.662;2023-07-16T03:22:25;23.60;57.40
11647;DHT22;5880;52.342;9.662;2023-07-16T03:24:51;23.70;58.30
11647;DHT22;5880;52.342;9.662;2023-07-16T03:27:17;23.60;57.40
11647;DHT22;5880;52.342;9.662;2023-07-16T03:29:42;23.50;57.40
11647;DHT22;5880;52.342;9.662;2023-07-16T03:32:08;23.50;57.40
11647;DHT22;5880;52.342;9.662;2023-07-16T03:34:34;23.40;57.60
11647;DHT22;5880;52.342;9.662;2023-07-16T03:36:59;23.40;57.60
11647;DHT22;5880;52.342;9.662;2023-07-16T03:39:25;23.40;57.60
11647;DHT22;5880;52.342;9.662;2023-07-16T03:41:51;23.30;57.80
11647;DHT22;5880;52.342;9.662;2023-07-16T03:44:16;23.40;58.00
11647;DHT22;5880;52.342;9.662;2023-07-16T03:46:42;23.30;58.10
11647;DHT22;5880;52.342;9.662;2023-07-16T03:49:08;23.20;58.10
11647;DHT22;5880;52.342;9.662;2023-07-16T03:51:34;23.30;58.20
11647;DHT22;5880;52.342;9.662;2023-07-16T03:54:00;23.50;58.50
11647;DHT22;5880;52.342;9.662;2023-07-16T03:56:25;23.20;58.20
11647;DHT22;5880;52.342;9.662;2023-07-16T03:58:51;23.20;58.40
11647;DHT22;5880;52.342;9.662;2023-07-16T04:01:17;23.20;58.30
11647;DHT22;5880;52.342;9.662;2023-07-16T04:03:42;23.10;58.20
11647;DHT22;5880;52.342;9.662;2023-07-16T04:06:09;23.10;58.20
11647;DHT22;5880;52.342;9.662;2023-07-16T04:08:36;23.20;58.10
11647;DHT22;5880;52.342;9.662;2023-07-16T04:11:05;23.10;58.10
11647;DHT22;5880;52.342;9.662;2023-07-16T04:13:32;23.10;58.50
11647;DHT22;5880;52.342;9.662;2023-07-16T04:15:58;23.10;58.10
11647;DHT22;5880;52.342;9.662;2023-07-16T04:18:27;23.10;58.00
11647;DHT22;5880;52.342;9.662;2023-07-16T04:20:53;23.10;58.50
11647;DHT22;5880;52.342;9.662;2023-07-16T04:23:19;23.10;58.30
11647;DHT22;5880;52.342;9.662;2023-07-16T04:25:45;23.10;58.40
11647;DHT22;5880;52.342;9.662;2023-07-16T04:28:11;23.10;57.90
11647;DHT22;5880;52.342;9.662;2023-07-16T04:30:37;23.10;58.50
11647;DHT22;5880;52.342;9.662;2023-07-16T04:33:04;23.10;58.50
11647;DHT22;5880;52.342;9.662;2023-07-16T04:35:30;23.10;58.60
11647;DHT22;5880;52.342;9.662;2023-07-16T04:37:56;23.30;58.60
11647;DHT22;5880;52.342;9.662;2023-07-16T04:40:21;23.20;58.50
11647;DHT22;5880;52.342;9.662;2023-07-16T04:42:47;23.20;58.30
11647;DHT22;5880;52.342;9.662;2023-07-16T04:45:13;23.30;58.40
11647;DHT22;5880;52.342;9.662;2023-07-16T04:47:39;23.20;58.20
11647;DHT22;5880;52.342;9.662;2023-07-16T04:50:05;23.30;58.40
11647;DHT22;5880;52.342;9.662;2023-07-16T04:52:31;23.20;58.50
11647;DHT22;5880;52.342;9.662;2023-07-16T04:54:57;23.30;58.60
11647;DHT22;5880;52.342;9.662;2023-07-16T04:57:23;23.20;58.50
11647;DHT22;5880;52.342;9.662;2023-07-16T04:59:48;23.20;58.50
11647;DHT22;5880;52.342;9.662;2023-07-16T05:02:14;23.30;58.70
11647;DHT22;5880;52.342;9.662;2023-07-16T05:04:42;23.20;58.60
11647;DHT22;5880;52.342;9.662;2023-07-16T05:07:09;23.30;58.80
11647;DHT22;5880;52.342;9.662;2023-07-16T05:09:35;23.30;58.90
11647;DHT22;5880;52.342;9.662;2023-07-16T05:12:01;23.30;59.00
11647;DHT22;5880;52.342;9.662;2023-07-16T05:14:28;23.40;59.30
11647;DHT22;5880;52.342;9.662;2023-07-16T05:16:55;23.40;59.70
11647;DHT22;5880;52.342;9.662;2023-07-16T05:19:22;23.60;60.00
11647;DHT22;5880;52.342;9.662;2023-07-16T05:21:48;23.60;59.70
11647;DHT22;5880;52.342;9.662;2023-07-16T05:24:13;23.70;59.60
11647;DHT22;5880;52.342;9.662;2023-07-16T05:26:39;23.80;59.40
11647;DHT22;5880;52.342;9.662;2023-07-16T05:29:05;24.00;59.40
11647;DHT22;5880;52.342;9.662;2023-07-16T05:31:30;24.00;59.20
11647;DHT22;5880;52.342;9.662;2023-07-16T05:33:56;24.10;58.90
11647;DHT22;5880;52.342;9.662;2023-07-16T05:36:22;24.30;58.70
11647;DHT22;5880;52.342;9.662;2023-07-16T05:38:48;24.30;58.50
11647;DHT22;5880;52.342;9.662;2023-07-16T05:41:13;24.40;58.30
11647;DHT22;5880;52.342;9.662;2023-07-16T05:43:39;24.70;58.70
11647;DHT22;5880;52.342;9.662;2023-07-16T05:46:05;24.70;58.70
11647;DHT22;5880;52.342;9.662;2023-07-16T05:48:31;24.90;58.60
11647;DHT22;5880;52.342;9.662;2023-07-16T05:50:57;25.10;58.60
11647;DHT22;5880;52.342;9.662;2023-07-16T05:53:23;25.30;58.00
11647;DHT22;5880;52.342;9.662;2023-07-16T05:55:48;25.40;57.60
11647;DHT22;5880;52.342;9.662;2023-07-16T05:58:15;25.70;57.00
11647;DHT22;5880;52.342;9.662;2023-07-16T06:00:41;25.90;56.40
11647;DHT22;5880;52.342;9.662;2023-07-16T06:03:07;26.10;56.30
11647;DHT22;5880;52.342;9.662;2023-07-16T06:05:33;26.30;55.30
11647;DHT22;5880;52.342;9.662;2023-07-16T06:08:00;26.50;55.50
11647;DHT22;5880;52.342;9.662;2023-07-16T06:10:26;26.60;56.10
11647;DHT22;5880;52.342;9.662;2023-07-16T06:12:52;26.90;56.00
11647;DHT22;5880;52.342;9.662;2023-07-16T06:15:18;27.10;56.60
11647;DHT22;5880;52.342;9.662;2023-07-16T06:17:43;27.40;57.30
11647;DHT22;5880;52.342;9.662;2023-07-16T06:20:09;27.70;57.90
11647;DHT22;5880;52.342;9.662;2023-07-16T06:22:36;28.10;58.10
11647;DHT22;5880;52.342;9.662;2023-07-16T06:25:01;28.60;57.50
11647;DHT22;5880;52.342;9.662;2023-07-16T06:27:27;29.10;57.80
11647;DHT22;5880;52.342;9.662;2023-07-16T06:29:53;29.60;58.00
11647;DHT22;5880;52.342;9.662;2023-07-16T06:32:18;30.30;56.40
11647;DHT22;5880;52.342;9.662;2023-07-16T06:34:44;30.70;51.30
11647;DHT22;5880;52.342;9.662;2023-07-16T06:37:10;30.90;48.50
11647;DHT22;5880;52.342;9.662;2023-07-16T06:39:35;31.00;47.20
11647;DHT22;5880;52.342;9.662;2023-07-16T06:42:01;31.10;47.80
11647;DHT22;5880;52.342;9.662;2023-07-16T06:44:27;31.30;47.70
11647;DHT22;5880;52.342;9.662;2023-07-16T06:46:52;31.50;46.70
11647;DHT22;5880;52.342;9.662;2023-07-16T06:49:18;31.70;46.20
11647;DHT22;5880;52.342;9.662;2023-07-16T06:51:44;31.90;45.80
11647;DHT22;5880;52.342;9.662;2023-07-16T06:54:10;32.10;46.20
11647;DHT22;5880;52.342;9.662;2023-07-16T06:56:36;32.40;46.60
11647;DHT22;5880;52.342;9.662;2023-07-16T06:59:02;32.70;45.30
11647;DHT22;5880;52.342;9.662;2023-07-16T07:01:27;32.90;43.00
11647;DHT22;5880;52.342;9.662;2023-07-16T07:03:54;33.10;39.90
11647;DHT22;5880;52.342;9.662;2023-07-16T07:06:20;32.90;37.20
11647;DHT22;5880;52.342;9.662;2023-07-16T07:08:46;32.80;37.50
11647;DHT22;5880;52.342;9.662;2023-07-16T07:11:12;32.50;35.60
11647;DHT22;5880;52.342;9.662;2023-07-16T07:13:38;32.20;35.50
11647;DHT22;5880;52.342;9.662;2023-07-16T07:16:04;31.80;35.00
11647;DHT22;5880;52.342;9.662;2023-07-16T07:18:29;31.30;34.70
11647;DHT22;5880;52.342;9.662;2023-07-16T07:20:55;30.90;34.40
11647;DHT22;5880;52.342;9.662;2023-07-16T07:23:21;30.40;34.50
11647;DHT22;5880;52.342;9.662;2023-07-16T07:25:51;30.00;35.40
11647;DHT22;5880;52.342;9.662;2023-07-16T07:28:17;29.50;35.00
11647;DHT22;5880;52.342;9.662;2023-07-16T07:30:44;29.30;36.40
11647;DHT22;5880;52.342;9.662;2023-07-16T07:33:10;29.10;36.20
11647;DHT22;5880;52.342;9.662;2023-07-16T07:35:36;28.90;35.10
11647;DHT22;5880;52.342;9.662;2023-07-16T07:38:02;28.80;35.10
11647;DHT22;5880;52.342;9.662;2023-07-16T07:40:27;28.50;35.10
11647;DHT22;5880;52.342;9.662;2023-07-16T07:42:53;28.30;35.20
11647;DHT22;5880;52.342;9.662;2023-07-16T07:45:19;28.10;35.00
11647;DHT22;5880;52.342;9.662;2023-07-16T07:47:44;28.00;36.10
11647;DHT22;5880;52.342;9.662;2023-07-16T07:50:10;27.80;35.70
11647;DHT22;5880;52.342;9.662;2023-07-16T07:52:36;27.70;35.50
11647;DHT22;5880;52.342;9.662;2023-07-16T07:55:02;27.50;36.00
11647;DHT22;5880;52.342;9.662;2023-07-16T07:57:28;27.50;36.20
11647;DHT22;5880;52.342;9.662;2023-07-16T07:59:54;27.40;35.50
11647;DHT22;5880;52.342;9.662;2023-07-16T08:02:23;27.30;35.00
11647;DHT22;5880;52.342;9.662;2023-07-16T08:04:51;27.20;35.50
11647;DHT22;5880;52.342;9.662;2023-07-16T08:07:17;27.10;35.10
11647;DHT22;5880;52.342;9.662;2023-07-16T08:09:43;27.10;35.20
11647;DHT22;5880;52.342;9.662;2023-07-16T08:12:09;27.10;35.10
11647;DHT22;5880;52.342;9.662;2023-07-16T08:14:34;26.80;34.10
11647;DHT22;5880;52.342;9.662;2023-07-16T08:17:00;27.00;35.00
11647;DHT22;5880;52.342;9.662;2023-07-16T08:19:26;27.00;34.60
11647;DHT22;5880;52.342;9.662;2023-07-16T08:21:52;26.90;34.40
11647;DHT22;5880;52.342;9.662;2023-07-16T08:24:17;26.80;33.90
11647;DHT22;5880;52.342;9.662;2023-07-16T08:26:44;26.70;34.20
11647;DHT22;5880;52.342;9.662;2023-07-16T08:29:10;26.70;34.10
11647;DHT22;5880;52.342;9.662;2023-07-16T08:31:36;26.60;33.80
11647;DHT22;5880;52.342;9.662;2023-07-16T08:34:01;26.60;33.50
11647;DHT22;5880;52.342;9.662;2023-07-16T08:36:27;26.50;33.50
11647;DHT22;5880;52.342;9.662;2023-07-16T08:38:53;26.50;33.80
11647;DHT22;5880;52.342;9.662;2023-07-16T08:41:19;26.40;33.90
11647;DHT22;5880;52.342;9.662;2023-07-16T08:43:48;26.40;34.20
11647;DHT22;5880;52.342;9.662;2023-07-16T08:46:15;26.40;34.10
11647;DHT22;5880;52.342;9.662;2023-07-16T08:48:41;26.40;34.60
11647;DHT22;5880;52.342;9.662;2023-07-16T08:51:09;26.40;34.40
11647;DHT22;5880;52.342;9.662;2023-07-16T08:53:37;26.50;34.30
11647;DHT22;5880;52.342;9.662;2023-07-16T08:56:03;26.50;34.50
11647;DHT22;5880;52.342;9.662;2023-07-16T08:58:30;26.50;34.80
11647;DHT22;5880;52.342;9.662;2023-07-16T09:00:58;26.60;35.00
11647;DHT22;5880;52.342;9.662;2023-07-16T09:03:25;26.60;34.50
11647;DHT22;5880;52.342;9.662;2023-07-16T09:05:53;26.60;34.40
11647;DHT22;5880;52.342;9.662;2023-07-16T09:08:19;26.60;34.20
11647;DHT22;5880;52.342;9.662;2023-07-16T09:10:53;26.70;34.50
11647;DHT22;5880;52.342;9.662;2023-07-16T09:13:20;26.70;34.20
11647;DHT22;5880;52.342;9.662;2023-07-16T09:15:51;26.70;35.00
11647;DHT22;5880;52.342;9.662;2023-07-16T09:18:21;26.80;34.20
11647;DHT22;5880;52.342;9.662;2023-07-16T09:20:48;26.80;34.60
11647;DHT22;5880;52.342;9.662;2023-07-16T09:23:20;27.00;35.10
11647;DHT22;5880;52.342;9.662;2023-07-16T09:25:46;26.90;35.10
11647;DHT22;5880;52.342;9.662;2023-07-16T09:28:18;27.00;35.10
11647;DHT22;5880;52.342;9.662;2023-07-16T09:30:44;27.00;35.00
11647;DHT22;5880;52.342;9.662;2023-07-16T09:33:17;27.00;34.60
11647;DHT22;5880;52.342;9.662;2023-07-16T09:35:48;27.10;34.70
11647;DHT22;5880;52.342;9.662;2023-07-16T09:38:15;27.10;33.80
11647;DHT22;5880;52.342;9.662;2023-07-16T09:40:42;27.10;34.20
11647;DHT22;5880;52.342;9.662;2023-07-16T09:43:09;27.10;34.10
11647;DHT22;5880;52.342;9.662;2023-07-16T09:45:38;27.10;33.60
11647;DHT22;5880;52.342;9.662;2023-07-16T09:48:04;27.10;33.60
11647;DHT22;5880;52.342;9.662;2023-07-16T09:50:34;27.20;33.50
11647;DHT22;5880;52.342;9.662;2023-07-16T09:53:01;27.20;33.20
11647;DHT22;5880;52.342;9.662;2023-07-16T09:55:31;27.20;33.60
11647;DHT22;5880;52.342;9.662;2023-07-16T09:58:06;27.20;33.90
11647;DHT22;5880;52.342;9.662;2023-07-16T10:00:35;27.20;34.50
11647;DHT22;5880;52.342;9.662;2023-07-16T10:03:02;27.30;34.80
11647;DHT22;5880;52.342;9.662;2023-07-16T10:05:30;27.40;34.80
11647;DHT22;5880;52.342;9.662;2023-07-16T10:07:58;27.40;35.30
11647;DHT22;5880;52.342;9.662;2023-07-16T10:10:39;27.50;35.20
11647;DHT22;5880;52.342;9.662;2023-07-16T10:13:07;27.50;33.40
11647;DHT22;5880;52.342;9.662;2023-07-16T10:15:34;27.60;34.20
11647;DHT22;5880;52.342;9.662;2023-07-16T10:17:59;27.60;34.30
11647;DHT22;5880;52.342;9.662;2023-07-16T10:20:33;27.60;33.80
11647;DHT22;5880;52.342;9.662;2023-07-16T10:23:17;27.60;33.10
11647;DHT22;5880;52.342;9.662;2023-07-16T10:26:00;27.60;33.00
11647;DHT22;5880;52.342;9.662;2023-07-16T10:28:34;27.70;32.70
11647;DHT22;5880;52.342;9.662;2023-07-16T10:31:03;27.70;33.80
11647;DHT22;5880;52.342;9.662;2023-07-16T10:33:29;27.70;33.40
11647;DHT22;5880;52.342;9.662;2023-07-16T10:35:57;27.70;33.30
11647;DHT22;5880;52.342;9.662;2023-07-16T10:38:26;27.70;32.70
11647;DHT22;5880;52.342;9.662;2023-07-16T10:40:52;27.80;33.10
11647;DHT22;5880;52.342;9.662;2023-07-16T10:43:18;27.80;32.40
11647;DHT22;5880;52.342;9.662;2023-07-16T10:45:44;27.80;32.30
11647;DHT22;5880;52.342;9.662;2023-07-16T10:48:12;27.90;32.30
11647;DHT22;5880;52.342;9.662;2023-07-16T10:50:38;27.90;32.30
11647;DHT22;5880;52.342;9.662;2023-07-16T10:53:04;27.90;31.80
11647;DHT22;5880;52.342;9.662;2023-07-16T10:55:30;27.90;32.10
11647;DHT22;5880;52.342;9.662;2023-07-16T10:57:58;27.90;31.60
11647;DHT22;5880;52.342;9.662;2023-07-16T11:00:24;27.90;31.60
11647;DHT22;5880;52.342;9.662;2023-07-16T11:02:51;27.90;32.20
11647;DHT22;5880;52.342;9.662;2023-07-16T11:05:18;27.90;31.60
11647;DHT22;5880;52.342;9.662;2023-07-16T11:07:46;27.90;32.60
11647;DHT22;5880;52.342;9.662;2023-07-16T11:10:12;27.90;32.20
11647;DHT22;5880;52.342;9.662;2023-07-16T11:12:41;28.00;32.00
11647;DHT22;5880;52.342;9.662;2023-07-16T11:15:08;28.10;31.40
11647;DHT22;5880;52.342;9.662;2023-07-16T11:17:36;28.10;31.20
11647;DHT22;5880;52.342;9.662;2023-07-16T11:20:03;28.10;31.70
11647;DHT22;5880;52.342;9.662;2023-07-16T11:22:32;28.10;31.70
11647;DHT22;5880;52.342;9.662;2023-07-16T11:24:58;28.20;31.50
11647;DHT22;5880;52.342;9.662;2023-07-16T11:27:26;28.30;31.50
11647;DHT22;5880;52.342;9.662;2023-07-16T11:29:54;28.20;30.80
11647;DHT22;5880;52.342;9.662;2023-07-16T11:35:08;28.30;30.30
11647;DHT22;5880;52.342;9.662;2023-07-16T11:37:35;28.30;30.50
11647;DHT22;5880;52.342;9.662;2023-07-16T11:40:03;28.30;30.00
11647;DHT22;5880;52.342;9.662;2023-07-16T11:45:14;28.30;30.30
11647;DHT22;5880;52.342;9.662;2023-07-16T11:47:41;28.30;29.80
11647;DHT22;5880;52.342;9.662;2023-07-16T11:50:07;28.30;30.60
11647;DHT22;5880;52.342;9.662;2023-07-16T11:52:33;28.30;30.80
11647;DHT22;5880;52.342;9.662;2023-07-16T11:54:59;28.40;31.50
11647;DHT22;5880;52.342;9.662;2023-07-16T11:57:25;28.40;31.00
11647;DHT22;5880;52.342;9.662;2023-07-16T11:59:51;28.50;30.30
11647;DHT22;5880;52.342;9.662;2023-07-16T12:02:17;28.60;30.40
11647;DHT22;5880;52.342;9.662;2023-07-16T12:04:43;28.60;30.80
11647;DHT22;5880;52.342;9.662;2023-07-16T12:07:09;28.50;30.20
11647;DHT22;5880;52.342;9.662;2023-07-16T12:09:35;28.50;30.40
11647;DHT22;5880;52.342;9.662;2023-07-16T12:12:01;28.50;30.20
11647;DHT22;5880;52.342;9.662;2023-07-16T12:14:27;28.50;30.40
11647;DHT22;5880;52.342;9.662;2023-07-16T12:16:52;28.50;30.90
11647;DHT22;5880;52.342;9.662;2023-07-16T12:19:18;28.50;30.50
11647;DHT22;5880;52.342;9.662;2023-07-16T12:21:44;28.60;30.10
11647;DHT22;5880;52.342;9.662;2023-07-16T12:24:11;28.50;29.60
11647;DHT22;5880;52.342;9.662;2023-07-16T12:26:37;28.60;30.60
11647;DHT22;5880;52.342;9.662;2023-07-16T12:29:03;28.60;30.60
11647;DHT22;5880;52.342;9.662;2023-07-16T12:31:30;28.60;30.40
11647;DHT22;5880;52.342;9.662;2023-07-16T12:34:00;28.60;30.50
11647;DHT22;5880;52.342;9.662;2023-07-16T12:36:29;28.80;30.20
11647;DHT22;5880;52.342;9.662;2023-07-16T12:38:56;28.70;29.60
11647;DHT22;5880;52.342;9.662;2023-07-16T12:41:21;28.70;30.10
11647;DHT22;5880;52.342;9.662;2023-07-16T12:43:47;28.70;30.50
11647;DHT22;5880;52.342;9.662;2023-07-16T12:46:13;28.70;30.40
11647;DHT22;5880;52.342;9.662;2023-07-16T12:48:38;28.70;30.50
11647;DHT22;5880;52.342;9.662;2023-07-16T12:51:04;28.60;30.50
11647;DHT22;5880;52.342;9.662;2023-07-16T12:53:30;28.60;30.30
11647;DHT22;5880;52.342;9.662;2023-07-16T12:55:55;28.60;30.70
11647;DHT22;5880;52.342;9.662;2023-07-16T12:58:21;28.70;31.00
11647;DHT22;5880;52.342;9.662;2023-07-16T13:00:47;28.80;30.60
11647;DHT22;5880;52.342;9.662;2023-07-16T13:03:13;28.90;30.40
11647;DHT22;5880;52.342;9.662;2023-07-16T13:05:42;28.80;30.50
11647;DHT22;5880;52.342;9.662;2023-07-16T13:08:09;28.80;30.20
11647;DHT22;5880;52.342;9.662;2023-07-16T13:10:35;28.80;30.10
11647;DHT22;5880;52.342;9.662;2023-07-16T13:13:01;28.80;30.30
11647;DHT22;5880;52.342;9.662;2023-07-16T13:15:28;28.80;30.20
11647;DHT22;5880;52.342;9.662;2023-07-16T13:17:54;28.80;29.50
11647;DHT22;5880;52.342;9.662;2023-07-16T13:20:21;28.80;29.50
11647;DHT22;5880;52.342;9.662;2023-07-16T13:22:47;28.80;30.30
11647;DHT22;5880;52.342;9.662;2023-07-16T13:25:13;28.80;29.90
11647;DHT22;5880;52.342;9.662;2023-07-16T13:27:39;28.80;30.20
11647;DHT22;5880;52.342;9.662;2023-07-16T13:30:06;28.80;30.30
11647;DHT22;5880;52.342;9.662;2023-07-16T13:32:32;28.80;30.10
11647;DHT22;5880;52.342;9.662;2023-07-16T13:34:58;28.80;30.20
11647;DHT22;5880;52.342;9.662;2023-07-16T13:37:24;28.80;30.00
11647;DHT22;5880;52.342;9.662;2023-07-16T13:39:50;28.80;30.10
11647;DHT22;5880;52.342;9.662;2023-07-16T13:42:15;28.80;30.10
11647;DHT22;5880;52.342;9.662;2023-07-16T13:44:41;28.90;30.20
11647;DHT22;5880;52.342;9.662;2023-07-16T13:47:07;29.00;30.30
11647;DHT22;5880;52.342;9.662;2023-07-16T13:49:32;29.00;30.40
11647;DHT22;5880;52.342;9.662;2023-07-16T13:51:58;29.10;29.90
11647;DHT22;5880;52.342;9.662;2023-07-16T13:54:24;29.20;29.50
11647;DHT22;5880;52.342;9.662;2023-07-16T13:56:49;29.10;29.70
11647;DHT22;5880;52.342;9.662;2023-07-16T13:59:15;29.00;29.60
11647;DHT22;5880;52.342;9.662;2023-07-16T14:01:41;29.00;30.50
11647;DHT22;5880;52.342;9.662;2023-07-16T14:04:07;29.00;30.10
11647;DHT22;5880;52.342;9.662;2023-07-16T14:06:33;29.00;30.10
11647;DHT22;5880;52.342;9.662;2023-07-16T14:08:59;29.10;30.20
11647;DHT22;5880;52.342;9.662;2023-07-16T14:11:25;29.10;30.30
11647;DHT22;5880;52.342;9.662;2023-07-16T14:13:51;29.10;29.90
11647;DHT22;5880;52.342;9.662;2023-07-16T14:16:19;29.10;30.10
11647;DHT22;5880;52.342;9.662;2023-07-16T14:18:49;29.20;29.80
11647;DHT22;5880;52.342;9.662;2023-07-16T14:21:16;29.20;29.40
11647;DHT22;5880;52.342;9.662;2023-07-16T14:23:42;29.30;29.30
11647;DHT22;5880;52.342;9.662;2023-07-16T14:26:07;29.30;29.80
11647;DHT22;5880;52.342;9.662;2023-07-16T14:28:33;29.30;30.00
11647;DHT22;5880;52.342;9.662;2023-07-16T14:30:59;29.40;30.00
11647;DHT22;5880;52.342;9.662;2023-07-16T14:33:24;29.40;29.80
11647;DHT22;5880;52.342;9.662;2023-07-16T14:35:50;29.40;29.70
11647;DHT22;5880;52.342;9.662;2023-07-16T14:38:16;29.50;30.10
11647;DHT22;5880;52.342;9.662;2023-07-16T14:40:41;29.40;29.80
11647;DHT22;5880;52.342;9.662;2023-07-16T14:43:07;29.40;29.60
11647;DHT22;5880;52.342;9.662;2023-07-16T14:45:34;29.40;29.80
11647;DHT22;5880;52.342;9.662;2023-07-16T14:48:00;29.40;29.70
11647;DHT22;5880;52.342;9.662;2023-07-16T14:50:26;29.40;29.80
11647;DHT22;5880;52.342;9.662;2023-07-16T14:52:52;29.50;29.40
11647;DHT22;5880;52.342;9.662;2023-07-16T14:55:19;29.50;29.50
11647;DHT22;5880;52.342;9.662;2023-07-16T14:57:44;29.60;29.30
11647;DHT22;5880;52.342;9.662;2023-07-16T15:00:11;29.50;29.40
11647;DHT22;5880;52.342;9.662;2023-07-16T15:02:37;29.50;29.20
11647;DHT22;5880;52.342;9.662;2023-07-16T15:05:04;29.40;29.20
11647;DHT22;5880;52.342;9.662;2023-07-16T15:07:33;29.40;28.90
11647;DHT22;5880;52.342;9.662;2023-07-16T15:10:00;29.40;29.00
11647;DHT22;5880;52.342;9.662;2023-07-16T15:12:26;29.40;28.80
11647;DHT22;5880;52.342;9.662;2023-07-16T15:14:52;29.60;28.70
11647;DHT22;5880;52.342;9.662;2023-07-16T15:17:18;29.40;28.80
11647;DHT22;5880;52.342;9.662;2023-07-16T15:19:43;29.50;29.20
11647;DHT22;5880;52.342;9.662;2023-07-16T15:22:09;29.50;29.20
11647;DHT22;5880;52.342;9.662;2023-07-16T15:24:36;29.50;29.30
11647;DHT22;5880;52.342;9.662;2023-07-16T15:27:02;29.50;29.10
11647;DHT22;5880;52.342;9.662;2023-07-16T15:29:31;29.40;29.20
11647;DHT22;5880;52.342;9.662;2023-07-16T15:31:57;29.40;29.10
11647;DHT22;5880;52.342;9.662;2023-07-16T15:34:23;29.40;28.50
11647;DHT22;5880;52.342;9.662;2023-07-16T15:36:48;29.40;28.80
11647;DHT22;5880;52.342;9.662;2023-07-16T15:39:14;29.40;28.20
11647;DHT22;5880;52.342;9.662;2023-07-16T15:41:39;29.30;28.50
11647;DHT22;5880;52.342;9.662;2023-07-16T15:44:05;29.30;28.40
11647;DHT22;5880;52.342;9.662;2023-07-16T15:46:31;29.30;28.80
11647;DHT22;5880;52.342;9.662;2023-07-16T15:48:57;29.20;29.20